Time;durP1;ratioP1;P1;durP2;ratioP2;P2;SDS_P1;SDS_P2;PMS_P1;PMS_P2;Temp;Humidity;BMP_temperature;BMP_pressure;BME280_temperature;BME280_humidity;BME280_pressure;Samples;Min_cycle;Max_cycle;Signal;HPM_P1;HPM_P2
2021/07/08 04:16:44;;;;;;;6.32;3.22;;;;;;;15.88;100.00;99040.75;5339728;23;20047;-74
2021/07/08 04:19:10;;;;;;;8.00;3.28;;;;;;;15.91;100.00;99031.03;4972145;28;20039;-73
2021/07/08 04:21:35;;;;;;;6.50;3.47;;;;;;;15.89;100.00;99035.44;4973238;28;20022;-74
2021/07/08 04:24:01;;;;;;;4.18;3.30;;;;;;;15.90;100.00;99036.31;4973260;28;20490;-74
2021/07/08 04:26:26;;;;;;;15.10;3.28;;;;;;;15.88;100.00;99038.13;4973096;28;20030;-74
2021/07/08 04:28:52;;;;;;;10.38;3.42;;;;;;;15.85;100.00;99043.44;4973239;28;20094;-73
2021/07/08 04:31:17;;;;;;;5.32;3.35;;;;;;;16.01;100.00;99039.41;4973614;28;20022;-73
2021/07/08 04:33:46;;;;;;;11.23;3.30;;;;;;;16.05;100.00;99035.78;4972997;28;20113;-73
2021/07/08 04:36:12;;;;;;;6.07;3.13;;;;;;;16.08;100.00;99040.88;4973011;28;20027;-74
2021/07/08 04:38:38;;;;;;;4.85;3.50;;;;;;;16.04;100.00;99034.03;4973313;28;20019;-74
2021/07/08 04:41:04;;;;;;;5.63;3.20;;;;;;;16.03;100.00;99032.34;4971877;28;20384;-74
2021/07/08 04:43:29;;;;;;;3.72;2.90;;;;;;;16.09;100.00;99026.88;4973038;28;20039;-73
2021/07/08 04:45:55;;;;;;;6.00;3.20;;;;;;;16.13;100.00;99020.66;4972923;28;20029;-73
2021/07/08 04:48:21;;;;;;;7.25;3.22;;;;;;;16.19;100.00;99017.78;4972698;28;20031;-73
2021/07/08 04:50:46;;;;;;;10.43;3.20;;;;;;;16.17;100.00;99024.00;4972903;28;20038;-74
2021/07/08 04:53:16;;;;;;;3.90;3.10;;;;;;;16.20;100.00;99018.69;4972948;28;20034;-73
2021/07/08 04:55:41;;;;;;;;;;;;;;;16.34;100.00;99010.28;4973187;28;20491;-74
2021/07/08 04:58:06;;;;;;;6.65;3.53;;;;;;;16.28;100.00;99006.16;4974848;28;20001;-74
2021/07/08 05:00:32;;;;;;;9.20;3.28;;;;;;;16.28;100.00;99008.75;4976812;28;20081;-74
2021/07/08 05:02:57;;;;;;;5.25;3.33;;;;;;;16.27;100.00;99008.84;4976808;28;20038;-73
2021/07/08 05:05:23;;;;;;;4.10;3.10;;;;;;;16.38;100.00;99009.28;4976347;28;20050;-73
2021/07/08 05:07:50;;;;;;;11.05;3.13;;;;;;;16.37;100.00;98997.13;4976546;28;20038;-73
2021/07/08 05:10:17;;;;;;;8.23;3.00;;;;;;;16.37;100.00;98994.50;4976473;28;20030;-73
2021/07/08 05:12:43;;;;;;;9.13;3.50;;;;;;;16.35;100.00;98994.56;4976456;28;20019;-73
2021/07/08 05:15:12;;;;;;;6.20;3.40;;;;;;;16.43;100.00;98989.03;4976259;28;20038;-74
2021/07/08 05:17:38;;;;;;;5.75;3.88;;;;;;;16.45;100.00;98992.44;4976257;28;20027;-74
2021/07/08 05:20:05;;;;;;;5.70;3.15;;;;;;;16.52;100.00;98985.22;4976292;28;20022;-74
2021/07/08 05:22:34;;;;;;;10.32;3.53;;;;;;;16.58;100.00;98977.97;4976362;28;20110;-74
2021/07/08 05:25:00;;;;;;;;;;;;;;;16.64;100.00;98982.97;4976427;28;20112;-74
2021/07/08 05:27:25;;;;;;;4.93;3.45;;;;;;;16.68;100.00;98992.41;4976023;28;19910;-73
2021/07/08 05:29:51;;;;;;;6.72;3.83;;;;;;;16.79;100.00;98993.78;4976263;28;20126;-74
2021/07/08 05:32:18;;;;;;;11.40;3.67;;;;;;;16.80;100.00;99003.34;4975997;28;20045;-73
2021/07/08 05:34:43;;;;;;;9.55;4.40;;;;;;;16.78;100.00;99002.53;4976296;28;20102;-73
2021/07/08 05:37:09;;;;;;;7.78;3.70;;;;;;;16.84;100.00;98994.44;4975831;28;20027;-73
2021/07/08 05:39:35;;;;;;;9.95;3.50;;;;;;;16.93;100.00;98994.09;4976083;28;20165;-73
2021/07/08 05:42:00;;;;;;;8.60;3.70;;;;;;;16.89;100.00;98997.72;4975887;28;20015;-74
2021/07/08 05:44:26;;;;;;;4.88;3.58;;;;;;;16.88;99.88;99002.13;4975898;28;20041;-73
2021/07/08 05:46:51;;;;;;;7.57;3.60;;;;;;;16.85;99.48;99004.84;4975642;28;20391;-74
2021/07/08 05:49:17;;;;;;;6.13;4.15;;;;;;;16.83;100.00;99009.31;4975892;28;20035;-74
2021/07/08 05:51:42;;;;;;;7.90;3.70;;;;;;;16.95;100.00;99015.81;4975703;28;20423;-73
2021/07/08 05:54:08;;;;;;;6.38;3.38;;;;;;;17.05;99.30;99030.22;4975841;28;20031;-73
2021/07/08 05:56:34;;;;;;;11.73;4.03;;;;;;;17.16;98.48;99048.13;4975496;28;20023;-74
2021/07/08 05:58:59;;;;;;;7.90;3.40;;;;;;;17.32;98.21;99069.31;4975697;28;20074;-74
2021/07/08 06:01:25;;;;;;;8.00;3.90;;;;;;;17.30;97.48;99079.00;4975988;28;20457;-74
2021/07/08 06:03:50;;;;;;;7.13;3.95;;;;;;;17.42;96.78;99094.22;4975603;28;20035;-73
2021/07/08 06:06:16;;;;;;;5.95;3.75;;;;;;;17.41;95.70;99100.38;4975492;28;20369;-73
2021/07/08 06:08:42;;;;;;;7.45;3.60;;;;;;;17.45;96.50;99108.06;4975430;28;20054;-73
2021/07/08 06:11:08;;;;;;;6.95;3.15;;;;;;;17.45;95.15;99112.41;4975466;28;20026;-73
2021/07/08 06:13:33;;;;;;;7.35;4.00;;;;;;;17.59;94.68;99119.72;4975410;28;20037;-74
2021/07/08 06:15:58;;;;;;;6.57;3.60;;;;;;;17.78;93.68;99130.31;4975072;28;20056;-73
2021/07/08 06:18:24;;;;;;;4.72;3.92;;;;;;;17.70;93.25;99133.25;4969482;28;20022;-73
2021/07/08 06:20:49;;;;;;;10.40;3.78;;;;;;;17.71;94.59;99127.94;4973009;28;20034;-73
2021/07/08 06:23:15;;;;;;;6.22;3.83;;;;;;;17.73;95.33;99128.75;4974875;28;20023;-73
2021/07/08 06:25:41;;;;;;;7.30;4.35;;;;;;;17.84;94.37;99135.31;4974145;28;20476;-74
2021/07/08 06:28:06;;;;;;;9.27;4.30;;;;;;;18.39;91.67;99133.81;4974807;28;20030;-74
2021/07/08 06:30:32;;;;;;;11.15;5.18;;;;;;;18.18;91.89;99124.22;4978506;28;20399;-73
2021/07/08 06:32:57;;;;;;;10.23;5.22;;;;;;;18.29;90.67;99127.25;4974840;28;20153;-73
2021/07/08 06:35:22;;;;;;;7.95;4.28;;;;;;;18.99;88.48;99124.09;4974470;28;20073;-73
2021/07/08 06:37:48;;;;;;;10.15;3.38;;;;;;;19.31;85.93;99128.75;4973235;28;20023;-73
2021/07/08 06:40:16;;;;;;;6.00;3.28;;;;;;;19.61;83.58;99119.41;4974220;28;20035;-73
2021/07/08 06:42:42;;;;;;;4.93;3.03;;;;;;;19.58;83.22;99124.78;4974747;28;20106;-73
2021/07/08 06:45:11;;;;;;;6.00;2.67;;;;;;;19.69;81.73;99130.41;4974521;28;20086;-73
2021/07/08 06:47:39;;;;;;;6.90;2.42;;;;;;;19.65;81.83;99128.00;4974026;28;20030;-74
2021/07/08 06:50:09;;;;;;;6.88;3.30;;;;;;;19.83;80.87;99120.97;4974447;28;20384;-74
2021/07/08 06:52:34;;;;;;;3.22;2.92;;;;;;;19.86;80.29;99115.53;4974328;28;20027;-74
2021/07/08 06:54:59;;;;;;;5.32;3.47;;;;;;;20.25;79.88;99112.66;4974357;28;20514;-74
2021/07/08 06:57:25;;;;;;;4.00;3.05;;;;;;;20.24;79.62;99105.69;4974171;28;20425;-75
2021/07/08 06:59:50;;;;;;;9.10;2.88;;;;;;;19.84;80.05;99112.16;4973542;28;20027;-75
2021/07/08 07:02:15;;;;;;;31.27;11.48;;;;;;;19.66;82.61;99109.50;4974269;28;20109;-75
2021/07/08 07:04:41;;;;;;;57.95;18.30;;;;;;;19.37;82.67;99108.28;4983878;28;20022;-75
2021/07/08 07:07:06;;;;;;;47.40;13.55;;;;;;;19.10;83.96;99097.34;4977928;28;20118;-75
2021/07/08 07:09:32;;;;;;;30.10;10.38;;;;;;;18.79;85.15;99089.19;4987306;28;20054;-75
2021/07/08 07:11:57;;;;;;;7.65;4.15;;;;;;;18.59;86.18;99088.28;4973263;28;20479;-75
2021/07/08 07:14:22;;;;;;;6.25;3.30;;;;;;;18.41;86.80;99081.25;4980764;28;20026;-75
2021/07/08 07:16:48;;;;;;;2.97;2.78;;;;;;;18.33;88.21;99086.00;4973901;28;20472;-73
2021/07/08 07:19:13;;;;;;;4.00;3.00;;;;;;;18.28;89.06;99082.75;4973897;28;20523;-73
2021/07/08 07:21:39;;;;;;;7.50;3.53;;;;;;;18.23;89.40;99081.16;4973305;28;20273;-73
2021/07/08 07:24:04;;;;;;;7.22;3.00;;;;;;;18.19;88.50;99073.50;4973877;28;20014;-73
2021/07/08 07:26:30;;;;;;;4.30;2.70;;;;;;;18.37;88.10;99071.81;4973664;28;20069;-73
2021/07/08 07:28:55;;;;;;;3.47;3.15;;;;;;;18.43;87.09;99076.81;4972739;28;20066;-73
2021/07/08 07:31:20;;;;;;;5.32;2.92;;;;;;;18.64;86.20;99073.19;4973611;28;20109;-73
2021/07/08 07:33:46;;;;;;;3.30;2.90;;;;;;;18.59;86.41;99085.66;4973440;28;20033;-73
2021/07/08 07:36:12;;;;;;;6.32;3.47;;;;;;;18.50;86.98;99093.97;4971980;28;20066;-75
2021/07/08 07:38:39;;;;;;;6.32;3.63;;;;;;;18.68;87.19;99097.53;4971656;28;20026;-74
2021/07/08 07:41:05;;;;;;;5.90;3.58;;;;;;;18.67;87.27;99096.69;4970470;28;20480;-74
2021/07/08 07:43:31;;;;;;;8.10;3.70;;;;;;;18.78;87.00;99098.84;4973405;28;20022;-73
2021/07/08 07:45:56;;;;;;;5.60;3.58;;;;;;;18.75;87.03;99099.81;4973079;28;20369;-73
2021/07/08 07:48:21;;;;;;;8.60;3.60;;;;;;;18.63;86.05;99097.75;4973419;28;20033;-74
2021/07/08 07:50:47;;;;;;;5.68;3.30;;;;;;;18.58;86.80;99097.09;4972296;28;20062;-74
2021/07/08 07:53:12;;;;;;;3.67;3.10;;;;;;;18.71;86.70;99093.03;4983301;28;20019;-74
2021/07/08 07:55:38;;;;;;;5.70;2.90;;;;;;;18.84;85.09;99097.69;4972750;28;20480;-74
2021/07/08 07:58:05;;;;;;;4.97;3.20;;;;;;;19.00;83.64;99088.16;4973072;28;20027;-74
2021/07/08 08:00:31;;;;;;;6.80;3.15;;;;;;;19.13;83.96;99096.31;4973385;28;20031;-74
2021/07/08 08:02:56;;;;;;;3.80;2.85;;;;;;;19.07;84.37;99094.00;4973412;28;20093;-75
2021/07/08 08:10:43;;;;;;;3.75;3.38;;;;;;;18.66;86.63;99100.22;4973373;28;20089;-75
2021/07/08 08:13:09;;;;;;;7.47;3.40;;;;;;;18.62;87.45;99103.91;4973254;28;20027;-74
2021/07/08 08:15:34;;;;;;;5.57;3.22;;;;;;;18.62;87.23;99101.28;4972745;28;20041;-74
2021/07/08 08:18:03;;;;;;;4.30;2.97;;;;;;;18.68;87.57;99095.78;4972534;28;20101;-74
2021/07/08 08:20:29;;;;;;;5.97;2.92;;;;;;;18.75;86.65;99099.81;4973096;28;20476;-74
2021/07/08 08:22:55;;;;;;;4.90;3.10;;;;;;;18.62;86.90;99103.91;4973056;28;20022;-74
2021/07/08 08:25:21;;;;;;;4.25;2.80;;;;;;;18.62;86.36;99103.06;4972856;28;20058;-75
2021/07/08 08:27:46;;;;;;;6.47;3.10;;;;;;;18.53;87.76;99093.84;4972937;28;20431;-73
2021/07/08 08:30:13;;;;;;;5.82;2.85;;;;;;;18.62;87.41;99082.91;4972688;28;20072;-74
2021/07/08 08:32:41;;;;;;;3.67;2.90;;;;;;;18.81;87.51;99082.06;4974269;28;20035;-74
2021/07/08 08:35:07;;;;;;;3.80;2.70;;;;;;;19.00;86.35;99077.66;4977017;28;20031;-74
2021/07/08 08:37:32;;;;;;;2.92;2.58;;;;;;;19.09;86.13;99079.00;4976853;28;20027;-73
2021/07/08 08:39:57;;;;;;;2.67;2.47;;;;;;;19.25;85.44;99072.94;4976879;28;20018;-73
2021/07/08 08:42:25;;;;;;;3.63;3.00;;;;;;;19.67;82.64;99079.66;4976395;28;20023;-74
2021/07/08 08:44:51;;;;;;;3.33;2.58;;;;;;;20.24;79.50;99079.38;4976674;28;20023;-74
2021/07/08 08:47:17;;;;;;;4.60;2.30;;;;;;;20.60;77.50;99097.69;4976605;28;20023;-74
2021/07/08 08:49:43;;;;;;;3.05;2.70;;;;;;;20.96;76.91;99101.84;4975895;28;20029;-74
2021/07/08 08:52:10;;;;;;;6.10;2.28;;;;;;;21.02;77.44;99112.06;4976236;28;20019;-74
2021/07/08 08:54:37;;;;;;;2.63;2.42;;;;;;;20.75;75.00;99111.78;4976220;28;20125;-75
2021/07/08 08:57:03;;;;;;;3.22;2.60;;;;;;;20.96;74.74;99099.22;4976493;28;20027;-74
2021/07/08 08:59:29;;;;;;;3.53;2.67;;;;;;;21.42;73.31;99094.91;4978000;28;20053;-74
2021/07/08 09:02:15;;;;;;;3.55;2.78;;;;;;;22.05;71.20;99093.84;4989920;28;20540;-74
2021/07/08 09:04:41;;;;;;;9.48;3.72;;;;;;;22.04;69.75;99100.03;4975548;28;20046;-75
2021/07/08 09:07:26;;;;;;;2.95;2.20;;;;;;;22.45;68.48;99094.94;4990757;28;20129;-74
2021/07/08 09:09:53;;;;;;;3.53;2.10;;;;;;;21.78;69.47;99105.09;5015515;28;20018;-74
2021/07/08 09:12:22;;;;;;;2.95;2.25;;;;;;;21.70;70.72;99120.50;5015387;28;20112;-74
2021/07/08 09:14:47;;;;;;;5.07;2.40;;;;;;;21.81;70.33;99126.03;5015215;28;20060;-74
2021/07/08 09:17:17;;;;;;;2.63;2.20;;;;;;;22.29;70.12;99129.38;5014649;28;20086;-74
2021/07/08 09:19:42;;;;;;;3.17;2.45;;;;;;;22.04;68.70;99137.00;5010783;28;20026;-74
2021/07/08 09:22:08;;;;;;;2.80;2.60;;;;;;;21.93;69.49;99140.28;4995584;28;20037;-74
2021/07/08 09:24:34;;;;;;;5.13;2.53;;;;;;;22.10;70.33;99135.78;5006773;28;20072;-74
2021/07/08 09:27:00;;;;;;;4.18;2.10;;;;;;;22.03;68.81;99145.84;5014000;28;20115;-74
2021/07/08 09:29:33;;;;;;;4.32;3.00;;;;;;;22.43;69.96;99138.22;5012842;28;20049;-74
2021/07/08 09:32:05;;;;;;;5.95;2.83;;;;;;;22.12;70.39;99132.16;5002123;28;20021;-74
2021/07/08 09:34:38;;;;;;;2.38;2.17;;;;;;;23.23;65.86;99128.84;5007491;28;20036;-74
2021/07/08 09:37:18;;;;;;;4.28;2.42;;;;;;;23.23;65.97;99124.41;4995151;28;20022;-74
2021/07/08 09:39:47;;;;;;;;;;;;;;;22.78;65.94;99123.69;4979129;28;20033;-74
2021/07/08 09:42:16;;;;;;;3.65;2.20;;;;;;;22.69;66.98;99116.34;5003768;28;19910;-75
2021/07/08 09:44:41;;;;;;;4.13;2.08;;;;;;;22.05;67.25;99115.81;5013061;28;20052;-75
2021/07/08 09:47:24;;;;;;;2.60;2.40;;;;;;;22.09;69.46;99111.19;5014566;28;20034;-74
2021/07/08 09:49:50;;;;;;;2.40;2.08;;;;;;;23.32;63.64;99118.53;5014166;28;20025;-74
2021/07/08 09:52:16;;;;;;;4.15;2.05;;;;;;;23.68;63.04;99110.94;5014357;28;20022;-74
2021/07/08 09:55:12;;;;;;;4.10;2.03;;;;;;;23.97;61.37;99103.69;5014602;28;20148;-75
2021/07/08 09:57:47;;;;;;;2.35;2.00;;;;;;;24.23;60.50;99100.13;4994818;28;20105;-75
2021/07/08 10:00:18;;;;;;;4.63;1.92;;;;;;;24.17;60.94;99097.03;4995005;28;20030;-75
2021/07/08 10:02:48;;;;;;;2.08;1.90;;;;;;;23.26;62.18;99112.78;4994121;28;20109;-76
2021/07/08 10:05:13;;;;;;;;;;;;;;;23.81;60.80;99106.53;4995511;28;20097;-74
2021/07/08 10:07:39;;;;;;;1.67;1.58;;;;;;;23.91;59.58;99098.81;5014362;28;20004;-74
2021/07/08 10:10:08;;;;;;;2.97;1.77;;;;;;;22.94;62.11;99105.13;5014397;28;20017;-74
2021/07/08 10:12:36;;;;;;;3.13;1.52;;;;;;;23.43;63.26;99098.47;5013993;28;20483;-74
2021/07/08 10:15:04;;;;;;;2.30;1.48;;;;;;;24.67;56.71;99092.72;5013768;28;20034;-74
2021/07/08 10:17:31;;;;;;;2.67;1.30;;;;;;;24.08;57.48;99099.38;5013825;28;20044;-74
2021/07/08 10:19:57;;;;;;;1.10;1.10;;;;;;;24.53;55.31;99098.97;5013736;28;20479;-74
2021/07/08 10:22:23;;;;;;;1.50;1.40;;;;;;;24.57;56.91;99093.34;5004217;28;20088;-74
2021/07/08 10:24:49;;;;;;;2.75;1.45;;;;;;;23.89;58.35;99095.44;4994032;28;20026;-74
2021/07/08 10:27:17;;;;;;;1.63;1.52;;;;;;;24.20;55.98;99089.72;5011155;28;20084;-74
2021/07/08 10:29:44;;;;;;;1.98;1.15;;;;;;;23.81;57.50;99094.13;5013989;28;20018;-75
2021/07/08 10:32:13;;;;;;;2.28;1.50;;;;;;;23.07;59.78;99086.69;5005693;28;20080;-75
2021/07/08 10:34:45;;;;;;;;;;;;;;;23.55;59.00;99087.06;4995807;28;20395;-74
2021/07/08 10:37:10;;;;;;;2.97;1.33;;;;;;;23.75;57.52;99080.50;5009711;28;19909;-74
2021/07/08 10:39:43;;;;;;;3.83;1.42;;;;;;;23.60;58.05;99074.38;5009233;28;20105;-73
2021/07/08 10:42:09;;;;;;;1.50;1.40;;;;;;;22.94;59.87;99077.84;4987428;28;20531;-74
2021/07/08 10:44:48;;;;;;;1.30;1.15;;;;;;;23.52;58.29;99072.25;4985708;28;20113;-75
2021/07/08 10:47:35;;;;;;;6.50;5.22;;;;;;;24.21;56.99;99080.81;4982813;28;20120;-75
2021/07/08 10:50:03;;;;;;;1.83;1.70;;;;;;;24.20;55.79;99075.66;4982795;28;20034;-74
2021/07/08 10:52:44;;;;;;;1.05;1.02;;;;;;;24.47;54.70;99080.88;4984366;28;20085;-75
2021/07/08 10:55:10;;;;;;;1.85;1.17;;;;;;;24.15;55.52;99080.41;4982670;28;20042;-75
2021/07/08 10:57:37;;;;;;;1.85;1.30;;;;;;;23.96;56.75;99088.75;4982786;28;20037;-75
2021/07/08 11:00:07;;;;;;;1.30;1.20;;;;;;;23.83;57.13;99096.69;4981359;28;20503;-75
2021/07/08 11:02:46;;;;;;;1.75;1.65;;;;;;;23.65;59.84;99104.06;4984986;28;21038;-74
2021/07/08 11:05:12;;;;;;;5.38;1.83;;;;;;;23.69;57.62;99110.84;4987177;28;20030;-74
2021/07/08 11:07:46;;;;;;;1.40;1.30;;;;;;;23.66;57.90;99120.78;4982894;28;20045;-75
2021/07/08 11:10:12;;;;;;;2.65;1.60;;;;;;;23.27;60.85;99125.06;4986006;28;20080;-75
2021/07/08 11:12:39;;;;;;;1.30;1.20;;;;;;;23.41;57.31;99130.31;4981208;28;20109;-75
2021/07/08 11:15:07;;;;;;;1.70;1.60;;;;;;;23.11;59.44;99130.47;4977958;28;20983;-75
2021/07/08 11:17:45;;;;;;;1.60;1.50;;;;;;;22.53;60.62;99126.16;4981068;28;20031;-75
2021/07/08 11:20:25;;;;;;;1.88;1.67;;;;;;;22.72;62.99;99129.34;4979171;28;20523;-74
2021/07/08 11:22:51;;;;;;;2.08;1.95;;;;;;;22.62;62.51;99128.22;4980432;28;20030;-74
2021/07/08 11:25:16;;;;;;;9.27;2.42;;;;;;;22.44;62.40;99124.09;4982447;28;20034;-75
2021/07/08 11:27:43;;;;;;;1.50;1.40;;;;;;;22.42;63.45;99105.69;4980939;28;20038;-75
2021/07/08 11:30:11;;;;;;;2.80;1.63;;;;;;;22.79;62.72;99108.69;4983690;28;20496;-74
2021/07/08 11:32:41;;;;;;;1.70;1.60;;;;;;;22.79;63.20;99104.25;4981699;28;20376;-76
2021/07/08 11:35:27;;;;;;;1.50;1.40;;;;;;;22.78;62.47;99097.28;4981921;28;20041;-75
2021/07/08 11:38:08;;;;;;;1.60;1.50;;;;;;;23.32;59.74;99101.81;4981494;28;20185;-75
2021/07/08 11:40:42;;;;;;;4.93;1.70;;;;;;;22.00;63.84;99103.81;4983698;28;20530;-76
2021/07/08 11:43:32;;;;;;;2.25;1.60;;;;;;;22.25;64.35;99104.09;4983088;28;20368;-76
2021/07/08 11:46:07;;;;;;;2.78;1.42;;;;;;;22.63;60.65;99095.59;4973150;28;20270;-76
2021/07/08 11:48:53;;;;;;;1.75;1.23;;;;;;;23.31;60.33;99111.53;4981573;28;20395;-74
2021/07/08 11:51:32;;;;;;;3.25;1.38;;;;;;;23.17;58.36;99106.28;4981330;28;20506;-73
2021/07/08 11:53:58;;;;;;;2.22;1.10;;;;;;;23.34;59.41;99111.31;4981056;28;20487;-73
2021/07/08 11:56:24;;;;;;;2.45;1.40;;;;;;;23.16;60.34;99095.78;4982855;28;20033;-74
2021/07/08 11:58:50;;;;;;;1.45;1.35;;;;;;;23.10;61.46;99091.75;4984051;28;20373;-74
2021/07/08 12:01:19;;;;;;;1.50;1.30;;;;;;;23.20;58.01;99081.44;4986903;28;20068;-74
2021/07/08 12:03:51;;;;;;;1.30;1.20;;;;;;;23.08;57.40;99078.66;4983753;28;20038;-75
2021/07/08 12:06:20;;;;;;;4.03;1.40;;;;;;;23.38;57.25;99079.41;4982492;28;20080;-75
2021/07/08 12:08:50;;;;;;;1.58;1.30;;;;;;;23.84;55.84;99075.41;4980732;28;20023;-73
2021/07/08 12:11:22;;;;;;;1.20;1.10;;;;;;;23.21;59.57;99073.44;4982600;28;20038;-74
2021/07/08 12:13:58;;;;;;;4.53;1.20;;;;;;;22.51;61.98;99080.50;4983669;28;20027;-73
2021/07/08 12:16:31;;;;;;;1.90;1.17;;;;;;;23.18;61.78;99083.34;4980244;28;20033;-74
2021/07/08 12:18:59;;;;;;;1.25;1.15;;;;;;;23.13;59.03;99091.56;4981018;28;20084;-73
2021/07/08 12:21:26;;;;;;;2.55;1.40;;;;;;;23.16;57.90;99095.78;4980595;28;20042;-73
2021/07/08 12:23:53;;;;;;;2.85;1.10;;;;;;;23.39;57.00;99086.38;4982965;28;20018;-74
2021/07/08 12:26:31;;;;;;;1.20;1.10;;;;;;;23.49;57.21;99079.53;4979845;28;20563;-74
2021/07/08 12:29:09;;;;;;;1.33;1.13;;;;;;;23.75;57.62;99062.81;4981625;28;20037;-76
2021/07/08 12:32:12;;;;;;;1.27;1.08;;;;;;;23.90;55.62;99054.78;4979794;28;20037;-75
2021/07/08 12:34:50;;;;;;;1.38;1.27;;;;;;;23.34;57.72;99044.38;4980293;28;20038;-75
2021/07/08 12:37:34;;;;;;;1.60;1.43;;;;;;;22.99;59.19;99036.09;4981068;28;20030;-74
2021/07/08 12:40:02;;;;;;;2.15;1.20;;;;;;;23.18;60.89;99012.81;4985836;28;20273;-74
2021/07/08 12:42:49;;;;;;;3.72;1.20;;;;;;;23.28;58.15;99010.41;4978338;28;20391;-75
2021/07/08 12:45:20;;;;;;;1.60;1.02;;;;;;;23.38;58.80;99000.06;4978390;28;20043;-75
2021/07/08 12:47:51;;;;;;;1.15;1.08;;;;;;;23.01;59.23;99013.06;4981995;28;20026;-74
2021/07/08 12:50:20;;;;;;;1.77;1.00;;;;;;;23.05;59.98;98988.13;4982722;28;20061;-74
2021/07/08 12:52:46;;;;;;;2.28;0.80;;;;;;;22.76;60.20;98972.34;4981281;28;20037;-74
2021/07/08 12:55:33;;;;;;;1.05;1.00;;;;;;;22.30;61.87;98959.44;4980713;28;20030;-73
2021/07/08 12:58:03;;;;;;;2.17;0.95;;;;;;;22.41;60.17;98965.84;4981297;28;20046;-73
2021/07/08 13:00:33;;;;;;;2.40;0.85;;;;;;;22.87;59.03;98978.72;4981280;28;20114;-73
2021/07/08 13:02:58;;;;;;;0.73;0.73;;;;;;;23.31;57.65;98987.25;4980605;28;20357;-73
2021/07/08 13:05:34;;;;;;;1.95;0.80;;;;;;;22.07;62.34;98975.84;4984986;28;20057;-74
2021/07/08 13:07:59;;;;;;;1.38;0.65;;;;;;;23.05;60.14;98966.97;4983637;28;20026;-74
2021/07/08 13:10:33;;;;;;;1.30;0.93;;;;;;;23.46;60.03;98981.88;4984737;28;20420;-74
2021/07/08 13:12:59;;;;;;;0.60;0.60;;;;;;;22.76;60.36;99024.31;4985594;28;20022;-74
2021/07/08 13:15:25;;;;;;;0.65;0.65;;;;;;;22.60;61.05;99032.38;4979985;28;20097;-74
2021/07/08 13:18:07;;;;;;;1.38;0.68;;;;;;;23.18;58.00;99031.31;4980239;28;20030;-75
2021/07/08 13:20:34;;;;;;;2.15;1.05;;;;;;;23.56;58.41;99030.56;4985375;28;20053;-74
2021/07/08 13:23:11;;;;;;;0.77;0.70;;;;;;;23.41;56.84;99028.97;4983745;28;20033;-75
2021/07/08 13:25:38;;;;;;;1.30;0.80;;;;;;;23.45;57.27;99033.06;4984394;28;20141;-74
2021/07/08 13:28:20;;;;;;;1.20;0.80;;;;;;;23.59;57.39;99030.34;4983988;28;20035;-75
2021/07/08 13:30:56;;;;;;;1.67;1.30;;;;;;;22.39;65.84;99036.38;4984914;28;20439;-75
2021/07/08 13:33:26;;;;;;;1.83;1.38;;;;;;;22.53;66.78;99039.00;4984571;28;20038;-74
2021/07/08 13:35:57;;;;;;;1.95;1.70;;;;;;;21.75;69.00;99036.66;4984915;28;20042;-74
2021/07/08 13:38:32;;;;;;;1.67;1.58;;;;;;;21.10;71.97;99033.44;4983903;28;20089;-74
2021/07/08 13:41:08;;;;;;;3.25;2.13;;;;;;;21.13;72.57;99035.91;4983494;28;20080;-75
2021/07/08 13:43:46;;;;;;;5.15;2.70;;;;;;;20.95;74.13;99045.69;4984364;28;20054;-75
2021/07/08 13:46:16;;;;;;;3.40;1.98;;;;;;;21.05;74.56;99038.13;4983854;28;20023;-75
2021/07/08 13:48:45;;;;;;;3.90;1.73;;;;;;;21.47;73.36;99031.34;4983563;28;20037;-75
2021/07/08 13:51:12;;;;;;;3.50;2.03;;;;;;;22.30;70.86;99025.44;4982110;28;20265;-75
2021/07/08 13:53:38;;;;;;;9.18;1.85;;;;;;;21.74;73.30;99029.69;4984101;28;20553;-74
2021/07/08 13:56:05;;;;;;;2.38;1.55;;;;;;;22.07;71.43;99015.41;4984978;28;20037;-75
2021/07/08 13:58:31;;;;;;;2.60;1.85;;;;;;;22.96;70.28;99020.44;4985929;28;20506;-75
2021/07/08 14:00:56;;;;;;;2.25;1.63;;;;;;;22.48;69.90;99022.59;4983776;28;20030;-74
2021/07/08 14:03:22;;;;;;;2.83;1.45;;;;;;;23.33;67.06;99011.78;4983314;28;20025;-75
2021/07/08 14:05:48;;;;;;;1.83;1.63;;;;;;;23.28;67.70;99005.97;4983943;28;20157;-74
2021/07/08 14:08:16;;;;;;;2.83;1.45;;;;;;;22.19;69.80;99000.63;4985314;28;20034;-75
2021/07/08 14:10:41;;;;;;;2.33;2.13;;;;;;;21.98;70.79;98992.22;4984370;28;20428;-75
2021/07/08 14:13:07;;;;;;;2.05;1.70;;;;;;;22.06;69.97;98987.34;4983644;28;20033;-75
2021/07/08 14:15:32;;;;;;;1.63;1.48;;;;;;;22.18;71.20;98981.31;4982528;28;20035;-75
2021/07/08 14:17:57;;;;;;;1.95;1.77;;;;;;;22.11;70.68;98974.75;4985339;28;20023;-74
2021/07/08 14:20:23;;;;;;;2.38;1.90;;;;;;;21.76;71.56;98977.72;4984533;28;20054;-74
2021/07/08 14:22:49;;;;;;;6.72;2.72;;;;;;;22.67;69.44;98978.22;4984745;28;20038;-73
2021/07/08 14:25:14;;;;;;;2.47;1.90;;;;;;;22.70;66.61;98980.66;4984103;28;20015;-73
2021/07/08 14:27:39;;;;;;;2.97;1.58;;;;;;;22.50;68.45;98976.66;4983269;28;20034;-74
2021/07/08 14:30:06;;;;;;;2.30;1.65;;;;;;;22.05;69.64;98953.97;4981644;28;21021;-75
2021/07/08 14:32:31;;;;;;;2.42;1.73;;;;;;;21.92;69.84;98953.88;4984420;28;20048;-75
2021/07/08 14:34:56;;;;;;;4.18;1.73;;;;;;;21.89;72.12;98953.22;4983158;28;20027;-75
2021/07/08 14:37:22;;;;;;;2.42;1.60;;;;;;;21.74;70.16;98955.84;4983871;28;20022;-75
2021/07/08 14:39:47;;;;;;;2.83;1.65;;;;;;;21.90;71.47;98944.34;4982524;28;20026;-75
2021/07/08 14:42:28;;;;;;;3.00;1.80;;;;;;;22.96;68.57;98951.72;4982796;28;20030;-75
2021/07/08 14:45:01;;;;;;;2.63;1.35;;;;;;;24.34;63.80;98954.53;4983732;28;20752;-75
2021/07/08 14:47:31;;;;;;;2.05;1.58;;;;;;;25.14;59.43;98954.03;4981792;28;20030;-75
2021/07/08 14:49:56;;;;;;;1.92;1.58;;;;;;;25.41;58.75;98963.53;4982804;28;20023;-75
2021/07/08 14:52:22;;;;;;;2.67;1.75;;;;;;;25.01;58.47;98969.16;4983517;28;20041;-75
2021/07/08 14:54:47;;;;;;;7.28;1.50;;;;;;;24.04;61.40;98969.97;4982555;28;20148;-75
2021/07/08 14:57:12;;;;;;;2.80;1.50;;;;;;;24.30;61.29;98952.22;4983124;28;20050;-75
2021/07/08 14:59:38;;;;;;;1.67;1.50;;;;;;;24.52;61.70;98940.97;4983133;28;20638;-75
2021/07/08 15:02:04;;;;;;;1.92;1.35;;;;;;;24.08;64.21;98945.81;4982144;28;21423;-74
2021/07/08 15:04:29;;;;;;;1.55;1.45;;;;;;;25.61;59.92;98947.78;4980847;28;20019;-75
2021/07/08 15:06:54;;;;;;;2.85;1.60;;;;;;;25.63;56.11;98945.03;4983959;28;20030;-74
2021/07/08 15:09:19;;;;;;;1.73;1.35;;;;;;;24.79;58.08;98933.63;4983055;28;20030;-74
2021/07/08 15:11:45;;;;;;;2.10;1.58;;;;;;;25.03;57.50;98924.81;4980818;28;20613;-74
2021/07/08 15:14:10;;;;;;;5.78;1.35;;;;;;;24.26;60.92;98941.00;4983926;28;20030;-81
2021/07/08 15:16:36;;;;;;;4.30;1.27;;;;;;;23.58;63.31;98936.06;4982837;28;20038;-73
2021/07/08 15:19:01;;;;;;;3.50;1.10;;;;;;;24.01;62.30;98926.00;4984171;28;20026;-73
2021/07/08 15:21:26;;;;;;;1.40;1.30;;;;;;;24.57;59.04;98917.63;4984782;28;20058;-73
2021/07/08 15:23:52;;;;;;;1.75;1.30;;;;;;;24.42;60.19;98913.41;4983116;28;20105;-74
2021/07/08 15:26:17;;;;;;;4.30;2.20;;;;;;;24.60;59.97;98923.53;4984315;28;20027;-73
2021/07/08 15:28:42;;;;;;;1.42;0.98;;;;;;;24.56;57.66;98929.16;4981648;28;20034;-73
2021/07/08 15:31:08;;;;;;;1.40;1.10;;;;;;;24.52;59.36;98936.50;4981767;28;20049;-73
2021/07/08 15:33:33;;;;;;;1.58;1.35;;;;;;;25.06;56.26;98937.84;4981757;28;20122;-73
2021/07/08 15:35:58;;;;;;;2.63;1.20;;;;;;;24.52;56.75;98940.97;4981820;28;20418;-73
2021/07/08 15:38:26;;;;;;;1.95;1.25;;;;;;;24.61;55.85;98945.56;4982660;28;20053;-73
2021/07/08 15:40:51;;;;;;;3.90;1.20;;;;;;;23.89;60.32;98947.22;4980747;28;20034;-73
2021/07/08 15:43:16;;;;;;;2.35;1.50;;;;;;;24.58;57.99;98941.34;4983932;28;20022;-73
2021/07/08 15:45:42;;;;;;;1.20;1.10;;;;;;;24.60;57.44;98943.88;4981021;28;20030;-74
2021/07/08 15:48:07;;;;;;;1.20;1.10;;;;;;;24.50;58.73;98948.16;4981058;28;20037;-73
2021/07/08 15:50:33;;;;;;;4.50;1.30;;;;;;;24.20;58.45;98941.44;4981169;28;20483;-73
2021/07/08 15:52:58;;;;;;;4.22;1.20;;;;;;;23.83;59.95;98943.19;4981592;28;20502;-71
2021/07/08 15:55:23;;;;;;;5.35;1.15;;;;;;;23.72;60.64;98940.44;4983527;28;20034;-73
2021/07/08 15:57:49;;;;;;;1.08;1.00;;;;;;;23.48;62.00;98945.59;4983513;28;20022;-73
2021/07/08 16:00:15;;;;;;;2.97;1.10;;;;;;;23.48;62.16;98953.53;4982369;28;20031;-73